createdAt,value
2022-12-29T00:01:43.597Z,4.67
2022-12-29T00:04:14.727Z,4.66
2022-12-29T00:06:42.037Z,4.63
2022-12-29T00:09:08.707Z,4.66
2022-12-29T00:11:35.515Z,4.65
2022-12-29T00:14:02.158Z,4.47
2022-12-29T00:16:28.902Z,4.29
2022-12-29T00:18:55.664Z,4.40
2022-12-29T00:21:22.284Z,4.50
2022-12-29T00:23:48.956Z,4.35
2022-12-29T00:26:15.585Z,4.20
2022-12-29T00:28:42.243Z,4.08
2022-12-29T00:31:08.979Z,3.95
2022-12-29T00:33:35.688Z,3.98
2022-12-29T00:36:02.393Z,3.89
2022-12-29T00:38:29.052Z,4.19
2022-12-29T00:40:55.705Z,4.31
2022-12-29T00:43:22.340Z,4.43
2022-12-29T00:45:49.015Z,4.53
2022-12-29T00:48:15.735Z,4.34
2022-12-29T00:50:42.364Z,4.15
2022-12-29T00:53:09.022Z,4.15
2022-12-29T00:55:35.762Z,4.31
2022-12-29T00:58:02.429Z,3.94
2022-12-29T01:00:29.199Z,3.92
2022-12-29T01:02:56.029Z,4.03
2022-12-29T01:05:22.784Z,4.03
2022-12-29T01:07:49.470Z,4.17
2022-12-29T01:10:16.159Z,4.22
2022-12-29T01:12:42.847Z,4.16
2022-12-29T01:15:09.576Z,4.01
2022-12-29T01:17:36.370Z,3.91
2022-12-29T01:20:03.098Z,4.14
2022-12-29T01:22:29.764Z,4.03
2022-12-29T01:24:56.487Z,4.03
2022-12-29T01:27:23.117Z,4.12
2022-12-29T01:29:49.806Z,4.07
2022-12-29T01:32:16.453Z,4.08
2022-12-29T01:34:44.821Z,4.15
2022-12-29T01:37:11.493Z,4.23
2022-12-29T01:39:38.160Z,3.81
2022-12-29T01:42:04.818Z,3.80
2022-12-29T01:44:31.517Z,3.89
2022-12-29T01:46:58.189Z,4.02
2022-12-29T01:49:24.898Z,3.81
2022-12-29T01:51:51.577Z,3.70
2022-12-29T01:54:18.326Z,3.90
2022-12-29T01:56:44.952Z,3.92
2022-12-29T01:59:11.681Z,3.94
2022-12-29T02:01:38.493Z,3.79
2022-12-29T02:04:05.229Z,3.81
2022-12-29T02:06:31.884Z,3.80
2022-12-29T02:08:58.759Z,3.76
2022-12-29T02:11:25.392Z,3.73
2022-12-29T02:13:52.051Z,3.90
2022-12-29T02:16:18.760Z,3.78
2022-12-29T02:18:45.483Z,3.78
2022-12-29T02:21:12.147Z,3.73
2022-12-29T02:23:38.802Z,3.49
2022-12-29T02:26:05.476Z,3.71
2022-12-29T02:28:32.096Z,3.84
2022-12-29T02:30:58.739Z,4.00
2022-12-29T02:33:25.408Z,3.96
2022-12-29T02:35:52.075Z,4.00
2022-12-29T02:38:18.742Z,3.69
2022-12-29T02:40:45.477Z,3.74
2022-12-29T02:43:12.128Z,3.79
2022-12-29T02:45:38.793Z,3.80
2022-12-29T02:48:05.473Z,3.59
2022-12-29T02:50:32.089Z,3.87
2022-12-29T02:52:58.737Z,3.89
2022-12-29T02:55:25.437Z,3.94
2022-12-29T02:57:52.115Z,3.46
2022-12-29T03:00:18.776Z,3.13
2022-12-29T03:02:45.517Z,2.76
2022-12-29T03:05:12.304Z,2.79
2022-12-29T03:07:38.981Z,2.86
2022-12-29T03:10:05.682Z,3.12
2022-12-29T03:12:32.337Z,2.99
2022-12-29T03:14:59.069Z,3.32
2022-12-29T03:17:25.733Z,3.04
2022-12-29T03:19:52.407Z,3.38
2022-12-29T03:22:19.156Z,3.36
2022-12-29T03:24:45.799Z,3.73
2022-12-29T03:27:12.466Z,3.58
2022-12-29T03:29:39.382Z,3.30
2022-12-29T03:32:06.034Z,3.02
2022-12-29T03:34:32.726Z,3.17
2022-12-29T03:36:59.408Z,3.21
2022-12-29T03:39:26.020Z,3.25
2022-12-29T03:41:52.709Z,3.27
2022-12-29T03:44:19.423Z,3.51
2022-12-29T03:46:46.091Z,3.62
2022-12-29T03:49:12.844Z,3.56
2022-12-29T03:51:39.545Z,3.65
2022-12-29T03:54:06.224Z,2.93
2022-12-29T03:56:32.925Z,3.23
2022-12-29T03:58:59.658Z,3.28
2022-12-29T04:01:26.378Z,3.31
2022-12-29T04:03:53.160Z,3.41
2022-12-29T04:06:19.879Z,3.33
2022-12-29T04:08:46.520Z,3.15
2022-12-29T04:11:13.232Z,3.32
2022-12-29T04:13:41.139Z,3.07
2022-12-29T04:16:07.865Z,3.23
2022-12-29T04:18:34.650Z,3.35
2022-12-29T04:21:01.380Z,3.21
2022-12-29T04:23:28.093Z,3.42
2022-12-29T04:25:54.746Z,3.78
2022-12-29T04:28:21.394Z,3.78
2022-12-29T04:30:48.340Z,3.93
2022-12-29T04:33:15.115Z,3.90
2022-12-29T04:35:41.926Z,3.94
2022-12-29T04:38:08.612Z,4.02
2022-12-29T04:40:35.328Z,4.12
2022-12-29T04:43:02.029Z,4.37
2022-12-29T04:45:28.705Z,4.23
2022-12-29T04:47:55.362Z,4.26
2022-12-29T04:50:22.070Z,4.17
2022-12-29T04:52:48.723Z,4.25
2022-12-29T04:55:15.400Z,4.28
2022-12-29T04:57:42.075Z,4.14
2022-12-29T05:00:08.736Z,4.23
2022-12-29T05:02:35.571Z,3.94
2022-12-29T05:05:02.397Z,3.62
2022-12-29T05:07:29.173Z,3.40
2022-12-29T05:09:55.909Z,3.50
2022-12-29T05:12:22.664Z,3.81
2022-12-29T05:14:49.317Z,3.43
2022-12-29T05:17:16.034Z,3.43
2022-12-29T05:19:42.831Z,3.15
2022-12-29T05:22:09.537Z,3.24
2022-12-29T05:24:36.264Z,3.20
2022-12-29T05:27:02.890Z,3.06
2022-12-29T05:29:29.531Z,3.39
2022-12-29T05:31:56.234Z,3.38
2022-12-29T05:34:22.994Z,3.50
2022-12-29T05:36:49.700Z,3.38
2022-12-29T05:39:16.332Z,3.43
2022-12-29T05:41:42.953Z,3.48
2022-12-29T05:44:09.612Z,3.26
2022-12-29T05:46:36.326Z,3.12
2022-12-29T05:49:03.072Z,3.31
2022-12-29T05:51:29.752Z,3.38
2022-12-29T05:53:56.425Z,3.25
2022-12-29T05:56:23.158Z,3.27
2022-12-29T05:58:49.869Z,3.43
2022-12-29T06:01:16.520Z,3.47
2022-12-29T06:03:48.200Z,3.11
2022-12-29T06:06:15.299Z,3.36
2022-12-29T06:08:41.992Z,3.52
2022-12-29T06:11:08.635Z,3.93
2022-12-29T06:13:35.298Z,3.48
2022-12-29T06:16:02.047Z,3.14
2022-12-29T06:18:28.794Z,3.45
2022-12-29T06:20:55.478Z,3.67
2022-12-29T06:23:22.148Z,3.31
2022-12-29T06:25:48.859Z,3.35
2022-12-29T06:28:15.567Z,3.60
2022-12-29T06:30:42.329Z,3.67
2022-12-29T06:33:08.984Z,3.76
2022-12-29T06:35:35.617Z,3.85
2022-12-29T06:38:02.241Z,3.86
2022-12-29T06:40:28.958Z,3.95
2022-12-29T06:42:55.759Z,4.12
2022-12-29T06:45:22.391Z,3.81
2022-12-29T06:47:49.065Z,3.98
2022-12-29T06:50:15.737Z,4.13
2022-12-29T06:52:42.425Z,4.25
2022-12-29T06:55:09.094Z,4.24
2022-12-29T06:57:35.725Z,4.12
2022-12-29T07:00:02.441Z,3.68
2022-12-29T07:02:29.180Z,3.86
2022-12-29T07:04:55.991Z,3.34
2022-12-29T07:07:22.691Z,3.79
2022-12-29T07:09:49.357Z,3.75
2022-12-29T07:12:16.019Z,4.21
2022-12-29T07:14:43.679Z,3.99
2022-12-29T07:17:10.548Z,3.90
2022-12-29T07:19:37.311Z,4.08
2022-12-29T07:22:03.983Z,4.32
2022-12-29T07:24:30.667Z,4.32
2022-12-29T07:26:57.296Z,4.43
2022-12-29T07:29:24.055Z,4.39
2022-12-29T07:31:50.770Z,4.37
2022-12-29T07:34:17.597Z,4.52
2022-12-29T07:36:44.245Z,4.43
2022-12-29T07:39:11.094Z,4.46
2022-12-29T07:41:37.752Z,4.63
2022-12-29T07:44:04.369Z,4.68
2022-12-29T07:46:56.461Z,4.72
2022-12-29T07:49:17.732Z,5.12
2022-12-29T07:51:44.404Z,5.47
2022-12-29T07:54:11.042Z,5.87
2022-12-29T07:56:37.665Z,6.13
2022-12-29T07:59:04.661Z,6.21
2022-12-29T08:01:31.333Z,6.26
2022-12-29T08:03:58.155Z,6.42
2022-12-29T08:06:24.888Z,6.62
2022-12-29T08:08:51.572Z,6.57
2022-12-29T08:11:18.278Z,6.70
2022-12-29T08:13:44.960Z,6.89
2022-12-29T08:16:11.735Z,7.00
2022-12-29T08:18:38.471Z,7.18
2022-12-29T08:21:05.116Z,7.37
2022-12-29T08:23:31.769Z,7.47
2022-12-29T08:25:58.454Z,7.51
2022-12-29T08:28:25.120Z,7.34
2022-12-29T08:30:51.859Z,7.37
2022-12-29T08:33:18.545Z,7.61
2022-12-29T08:35:45.215Z,7.52
2022-12-29T08:38:11.870Z,7.91
2022-12-29T08:40:38.567Z,8.31
2022-12-29T08:43:05.193Z,8.33
2022-12-29T08:45:31.884Z,8.55
2022-12-29T08:47:58.548Z,8.69
2022-12-29T08:50:25.355Z,8.39
2022-12-29T08:52:52.042Z,8.43
2022-12-29T08:55:18.738Z,8.47
2022-12-29T08:57:45.425Z,8.34
2022-12-29T09:00:12.124Z,8.50
2022-12-29T09:02:42.106Z,8.43
2022-12-29T09:05:08.936Z,8.72
2022-12-29T09:07:35.653Z,9.03
2022-12-29T09:10:02.367Z,9.24
2022-12-29T09:12:34.490Z,9.51
2022-12-29T09:15:03.023Z,9.67
2022-12-29T09:17:29.737Z,9.79
2022-12-29T09:19:56.347Z,10.05
2022-12-29T09:22:23.034Z,10.17
2022-12-29T09:24:50.211Z,10.16
2022-12-29T09:27:16.919Z,10.13
2022-12-29T09:29:43.617Z,10.34
2022-12-29T09:32:13.877Z,10.06
2022-12-29T09:34:43.859Z,9.98
2022-12-29T09:37:10.522Z,9.91
2022-12-29T09:39:37.244Z,9.91
2022-12-29T09:42:03.892Z,10.23
2022-12-29T09:44:30.602Z,10.15
2022-12-29T09:46:57.442Z,10.04
2022-12-29T09:49:24.185Z,10.52
2022-12-29T09:51:50.888Z,10.73
2022-12-29T09:54:17.560Z,10.97
2022-12-29T09:56:44.277Z,11.13
2022-12-29T09:59:10.984Z,10.99
2022-12-29T10:01:37.722Z,11.38
2022-12-29T10:04:04.489Z,11.61
2022-12-29T10:06:31.181Z,11.80
2022-12-29T10:08:57.858Z,11.93
2022-12-29T10:11:24.592Z,12.12
2022-12-29T10:13:53.185Z,12.13
2022-12-29T10:16:19.923Z,12.35
2022-12-29T10:18:46.630Z,12.53
2022-12-29T10:21:13.316Z,12.70
2022-12-29T10:23:39.934Z,12.93
2022-12-29T10:26:06.661Z,13.00
2022-12-29T10:28:33.396Z,13.15
2022-12-29T10:31:03.593Z,13.21
2022-12-29T10:33:35.112Z,13.27
2022-12-29T10:36:01.929Z,13.31
2022-12-29T10:38:28.649Z,13.33
2022-12-29T10:40:55.320Z,13.46
2022-12-29T10:43:22.027Z,13.38
2022-12-29T10:45:48.717Z,13.46
2022-12-29T10:48:15.456Z,13.63
2022-12-29T10:50:42.086Z,13.70
2022-12-29T10:53:08.748Z,13.76
2022-12-29T10:55:35.391Z,13.90
2022-12-29T10:58:02.025Z,13.93
2022-12-29T11:00:28.940Z,14.21
2022-12-29T11:02:55.771Z,14.31
2022-12-29T11:05:22.582Z,13.89
2022-12-29T11:07:49.295Z,13.62
2022-12-29T11:10:16.097Z,13.71
2022-12-29T11:12:42.806Z,14.03
2022-12-29T11:15:09.471Z,14.68
2022-12-29T11:17:36.131Z,14.70
2022-12-29T11:20:02.800Z,14.64
2022-12-29T11:22:29.475Z,15.12
2022-12-29T11:24:56.163Z,15.29
2022-12-29T11:27:22.841Z,15.39
2022-12-29T11:29:49.477Z,15.06
2022-12-29T11:32:16.190Z,15.39
2022-12-29T11:34:42.931Z,15.60
2022-12-29T11:37:09.756Z,15.82
2022-12-29T11:39:36.415Z,15.84
2022-12-29T11:42:03.158Z,15.74
2022-12-29T11:44:29.837Z,15.43
2022-12-29T11:46:56.476Z,15.63
2022-12-29T11:49:23.205Z,16.07
2022-12-29T11:51:50.924Z,16.23
2022-12-29T11:54:17.617Z,16.18
2022-12-29T11:56:44.254Z,16.07
2022-12-29T11:59:10.910Z,16.14
2022-12-29T12:01:37.586Z,16.18
2022-12-29T12:04:04.494Z,16.42
2022-12-29T12:06:31.243Z,16.59
2022-12-29T12:08:57.963Z,16.50
2022-12-29T12:11:24.623Z,15.89
2022-12-29T12:13:51.349Z,15.97
2022-12-29T12:16:18.155Z,16.51
2022-12-29T12:18:44.885Z,16.57
2022-12-29T12:21:11.549Z,16.94
2022-12-29T12:23:38.237Z,17.04
2022-12-29T12:26:04.903Z,17.37
2022-12-29T12:28:36.454Z,17.47
2022-12-29T12:31:03.545Z,17.28
2022-12-29T12:33:30.344Z,17.24
2022-12-29T12:35:57.064Z,17.25
2022-12-29T12:38:23.704Z,17.35
2022-12-29T12:40:51.181Z,17.41
2022-12-29T12:43:17.872Z,17.62
2022-12-29T12:45:44.726Z,17.52
2022-12-29T12:48:11.347Z,16.75
2022-12-29T12:50:38.062Z,17.23
2022-12-29T12:53:04.715Z,17.45
2022-12-29T12:55:31.357Z,17.76
2022-12-29T12:57:58.019Z,17.97
2022-12-29T13:00:24.754Z,18.07
2022-12-29T13:02:51.564Z,18.13
2022-12-29T13:05:24.309Z,18.21
2022-12-29T13:07:53.028Z,18.25
2022-12-29T13:10:19.723Z,18.06
2022-12-29T13:12:46.493Z,17.87
2022-12-29T13:15:13.231Z,18.06
2022-12-29T13:17:39.880Z,17.78
2022-12-29T13:20:06.593Z,17.65
2022-12-29T13:22:33.275Z,17.80
2022-12-29T13:24:59.984Z,17.92
2022-12-29T13:27:28.741Z,17.97
2022-12-29T13:29:58.772Z,17.91
2022-12-29T13:32:25.672Z,17.91
2022-12-29T13:34:52.317Z,17.91
2022-12-29T13:37:19.009Z,17.87
2022-12-29T13:39:45.625Z,17.84
2022-12-29T13:42:12.316Z,17.54
2022-12-29T13:44:39.042Z,17.52
2022-12-29T13:47:05.725Z,17.62
2022-12-29T13:49:32.438Z,17.65
2022-12-29T13:51:59.126Z,17.60
2022-12-29T13:54:25.844Z,17.43
2022-12-29T13:56:52.558Z,17.41
2022-12-29T13:59:19.298Z,17.24
2022-12-29T14:01:46.158Z,17.13
2022-12-29T14:04:12.971Z,16.95
2022-12-29T14:06:39.646Z,16.77
2022-12-29T14:09:06.320Z,16.84
2022-12-29T14:11:33.005Z,16.62
2022-12-29T14:13:59.701Z,16.41
2022-12-29T14:16:26.372Z,16.34
2022-12-29T14:18:53.125Z,16.24
2022-12-29T14:21:19.772Z,16.14
2022-12-29T14:23:46.442Z,15.97
2022-12-29T14:26:13.077Z,15.80
2022-12-29T14:28:39.752Z,15.48
2022-12-29T14:31:06.486Z,15.25
2022-12-29T14:33:33.229Z,15.07
2022-12-29T14:35:59.949Z,14.90
2022-12-29T14:38:26.638Z,14.78
2022-12-29T14:40:53.314Z,14.70
2022-12-29T14:43:19.986Z,14.60
2022-12-29T14:45:46.668Z,14.48
2022-12-29T14:48:13.358Z,14.36
2022-12-29T14:50:40.025Z,14.18
2022-12-29T14:53:06.712Z,13.99
2022-12-29T14:55:33.344Z,13.89
2022-12-29T14:58:00.041Z,13.59
2022-12-29T15:00:26.687Z,13.45
2022-12-29T15:02:53.485Z,13.26
2022-12-29T15:05:20.172Z,12.83
2022-12-29T15:07:46.814Z,12.72
2022-12-29T15:10:13.480Z,12.75
2022-12-29T15:12:40.193Z,12.65
2022-12-29T15:17:51.120Z,12.53
2022-12-29T15:20:17.859Z,12.35
2022-12-29T15:22:44.587Z,12.33
2022-12-29T15:25:11.284Z,12.31
2022-12-29T15:27:37.964Z,12.34
2022-12-29T15:30:04.575Z,12.20
2022-12-29T15:32:31.240Z,12.15
2022-12-29T15:34:57.927Z,12.23
2022-12-29T15:37:24.604Z,12.27
2022-12-29T15:39:51.290Z,12.17
2022-12-29T15:42:18.015Z,12.16
2022-12-29T15:44:44.691Z,12.03
2022-12-29T15:47:11.391Z,11.94
2022-12-29T15:49:38.127Z,11.69
2022-12-29T15:52:04.851Z,11.61
2022-12-29T15:54:31.573Z,11.50
2022-12-29T15:56:58.297Z,10.86
2022-12-29T15:59:24.982Z,11.08
2022-12-29T16:01:51.773Z,10.88
2022-12-29T16:04:18.539Z,11.08
2022-12-29T16:06:45.232Z,10.86
2022-12-29T16:09:11.878Z,10.73
2022-12-29T16:11:38.533Z,10.79
2022-12-29T16:14:05.181Z,10.65
2022-12-29T16:16:31.890Z,10.68
2022-12-29T16:18:58.824Z,10.76
2022-12-29T16:21:25.504Z,10.38
2022-12-29T16:23:52.162Z,10.21
2022-12-29T16:26:18.867Z,10.26
2022-12-29T16:28:45.522Z,10.17
2022-12-29T16:31:12.316Z,10.37
2022-12-29T16:33:39.095Z,10.35
2022-12-29T16:36:05.817Z,10.45
2022-12-29T16:38:32.656Z,10.29
2022-12-29T16:40:59.342Z,10.24
2022-12-29T16:43:26.073Z,10.41
2022-12-29T16:45:52.745Z,10.33
2022-12-29T16:48:19.482Z,10.29
2022-12-29T16:50:46.145Z,10.22
2022-12-29T16:53:12.823Z,10.10
2022-12-29T16:55:39.496Z,10.08
2022-12-29T16:58:06.145Z,10.27
2022-12-29T17:00:32.785Z,10.31
2022-12-29T17:02:59.584Z,10.43
2022-12-29T17:05:26.364Z,10.27
2022-12-29T17:07:53.028Z,10.10
2022-12-29T17:10:19.736Z,10.24
2022-12-29T17:12:46.434Z,10.06
2022-12-29T17:15:13.093Z,10.27
2022-12-29T17:17:39.820Z,10.36
2022-12-29T17:20:06.468Z,10.13
2022-12-29T17:22:33.237Z,10.13
2022-12-29T17:24:59.930Z,10.03
2022-12-29T17:27:26.828Z,9.92
2022-12-29T17:29:53.535Z,9.74
2022-12-29T17:32:20.179Z,9.84
2022-12-29T17:34:46.831Z,9.60
2022-12-29T17:37:13.916Z,9.47
2022-12-29T17:39:40.671Z,9.20
2022-12-29T17:42:07.301Z,9.33
2022-12-29T17:44:34.020Z,9.20
2022-12-29T17:47:00.724Z,9.02
2022-12-29T17:49:27.382Z,8.78
2022-12-29T17:51:54.124Z,8.78
2022-12-29T17:54:20.781Z,8.67
2022-12-29T17:56:47.444Z,8.41
2022-12-29T17:59:14.208Z,8.26
2022-12-29T18:01:45.303Z,8.26
2022-12-29T18:04:12.335Z,8.06
2022-12-29T18:06:39.029Z,8.14
2022-12-29T18:09:05.681Z,8.23
2022-12-29T18:11:32.382Z,7.75
2022-12-29T18:13:59.040Z,7.94
2022-12-29T18:16:25.780Z,7.81
2022-12-29T18:18:52.542Z,7.31
2022-12-29T18:21:19.290Z,7.36
2022-12-29T18:23:46.171Z,7.13
2022-12-29T18:26:12.866Z,6.99
2022-12-29T18:28:39.521Z,7.32
2022-12-29T18:31:06.259Z,7.65
2022-12-29T18:33:32.961Z,7.45
2022-12-29T18:35:59.615Z,7.38
2022-12-29T18:38:26.335Z,7.02
2022-12-29T18:40:53.037Z,7.02
2022-12-29T18:43:19.714Z,7.03
2022-12-29T18:45:46.394Z,6.63
2022-12-29T18:48:13.044Z,6.78
2022-12-29T18:50:39.677Z,6.90
2022-12-29T18:53:06.386Z,6.89
2022-12-29T18:55:33.123Z,7.05
2022-12-29T18:57:59.827Z,7.37
2022-12-29T19:00:26.482Z,7.03
2022-12-29T19:02:53.176Z,6.97
2022-12-29T19:05:19.933Z,7.17
2022-12-29T19:07:46.632Z,7.19
2022-12-29T19:10:13.329Z,7.05
2022-12-29T19:12:40.014Z,7.59
2022-12-29T19:15:06.699Z,7.77
2022-12-29T19:17:33.416Z,7.92
2022-12-29T19:20:00.113Z,7.85
2022-12-29T19:22:26.873Z,8.11
2022-12-29T19:24:59.580Z,7.87
2022-12-29T19:27:26.706Z,7.84
2022-12-29T19:29:53.353Z,7.61
2022-12-29T19:32:19.999Z,7.47
2022-12-29T19:34:46.619Z,7.54
2022-12-29T19:37:13.308Z,7.80
2022-12-29T19:39:40.123Z,8.19
2022-12-29T19:42:06.837Z,8.22
2022-12-29T19:44:33.507Z,8.03
2022-12-29T19:47:00.245Z,7.85
2022-12-29T19:49:27.044Z,7.64
2022-12-29T19:51:53.731Z,7.90
2022-12-29T19:54:20.869Z,7.83
2022-12-29T19:56:47.567Z,8.13
2022-12-29T19:59:14.397Z,8.34
2022-12-29T20:01:41.392Z,8.29
2022-12-29T20:04:08.259Z,8.22
2022-12-29T20:06:35.111Z,7.66
2022-12-29T20:09:01.807Z,7.18
2022-12-29T20:11:28.591Z,7.46
2022-12-29T20:13:55.320Z,7.63
2022-12-29T20:16:22.056Z,7.66
2022-12-29T20:18:51.052Z,7.56
2022-12-29T20:21:17.823Z,7.32
2022-12-29T20:23:44.496Z,7.23
2022-12-29T20:26:11.282Z,7.45
2022-12-29T20:28:37.948Z,7.86
2022-12-29T20:31:04.672Z,7.68
2022-12-29T20:33:31.344Z,7.94
2022-12-29T20:35:58.034Z,7.65
2022-12-29T20:38:24.693Z,7.89
2022-12-29T20:40:51.426Z,8.01
2022-12-29T20:43:18.068Z,7.41
2022-12-29T20:45:44.812Z,7.27
2022-12-29T20:48:11.682Z,7.32
2022-12-29T20:50:38.449Z,7.30
2022-12-29T20:53:05.250Z,7.41
2022-12-29T20:55:31.900Z,7.39
2022-12-29T20:58:23.074Z,7.68
2022-12-29T21:00:45.249Z,7.98
2022-12-29T21:03:12.116Z,7.98
2022-12-29T21:05:38.945Z,7.84
2022-12-29T21:08:05.632Z,7.73
2022-12-29T21:10:32.299Z,8.03
2022-12-29T21:12:59.003Z,7.73
2022-12-29T21:15:25.734Z,7.81
2022-12-29T21:17:52.368Z,8.06
2022-12-29T21:20:19.001Z,8.10
2022-12-29T21:22:45.681Z,7.82
2022-12-29T21:25:12.382Z,7.31
2022-12-29T21:27:39.127Z,7.37
2022-12-29T21:30:05.903Z,7.58
2022-12-29T21:32:32.574Z,7.79
2022-12-29T21:34:59.222Z,7.99
2022-12-29T21:37:25.880Z,8.05
2022-12-29T21:39:52.523Z,8.33
2022-12-29T21:42:19.206Z,8.38
2022-12-29T21:44:45.969Z,8.22
2022-12-29T21:47:14.942Z,7.82
2022-12-29T21:49:41.586Z,7.82
2022-12-29T21:52:08.291Z,7.76
2022-12-29T21:54:35.007Z,7.86
2022-12-29T21:57:01.718Z,7.93
2022-12-29T21:59:28.360Z,7.86
2022-12-29T22:01:55.086Z,8.02
2022-12-29T22:04:21.820Z,7.91
2022-12-29T22:06:48.442Z,7.98
2022-12-29T22:09:15.158Z,8.24
2022-12-29T22:11:41.857Z,8.58
2022-12-29T22:14:08.536Z,8.63
2022-12-29T22:16:35.240Z,8.32
2022-12-29T22:19:01.922Z,8.39
2022-12-29T22:21:28.575Z,8.42
2022-12-29T22:23:55.279Z,8.14
2022-12-29T22:26:22.044Z,8.48
2022-12-29T22:28:48.873Z,8.27
2022-12-29T22:31:15.572Z,8.02
2022-12-29T22:33:42.259Z,7.82
2022-12-29T22:36:08.956Z,7.45
2022-12-29T22:38:35.598Z,6.96
2022-12-29T22:41:02.309Z,7.31
2022-12-29T22:43:28.944Z,7.26
2022-12-29T22:45:55.598Z,6.93
2022-12-29T22:48:22.333Z,7.24
2022-12-29T22:50:49.013Z,7.45
2022-12-29T22:53:15.720Z,7.70
2022-12-29T22:55:42.428Z,7.75
2022-12-29T22:58:09.143Z,7.43
2022-12-29T23:00:35.889Z,7.39
2022-12-29T23:03:02.737Z,7.37
2022-12-29T23:05:29.585Z,7.55
2022-12-29T23:07:56.261Z,7.48
2022-12-29T23:10:22.975Z,7.77
2022-12-29T23:12:49.720Z,7.94
2022-12-29T23:15:16.431Z,7.97
2022-12-29T23:17:43.108Z,7.93
2022-12-29T23:20:09.826Z,7.94
2022-12-29T23:22:36.514Z,7.88
2022-12-29T23:25:03.160Z,7.62
2022-12-29T23:27:29.784Z,7.65
2022-12-29T23:29:56.500Z,7.69
2022-12-29T23:32:23.181Z,7.72
2022-12-29T23:34:49.908Z,7.51
2022-12-29T23:37:16.595Z,7.47
2022-12-29T23:39:43.298Z,7.29
2022-12-29T23:42:09.947Z,7.14
2022-12-29T23:44:36.603Z,7.20
2022-12-29T23:47:03.382Z,7.14
2022-12-29T23:49:30.085Z,7.20
2022-12-29T23:51:56.791Z,6.79
2022-12-29T23:54:23.650Z,6.66
2022-12-29T23:56:50.333Z,6.55
2022-12-29T23:59:17.020Z,6.58
